Time;durP1;ratioP1;P1;durP2;ratioP2;P2;SDS_P1;SDS_P2;PMS_P1;PMS_P2;Temp;Humidity;BMP_temperature;BMP_pressure;BME280_temperature;BME280_humidity;BME280_pressure;Samples;Min_cycle;Max_cycle;Signal;HPM_P1;HPM_P2
2023/03/21 00:00:00;;;;;;;;;;;;;;;;;;4968601;28;19913;-80
2023/03/21 00:02:26;;;;;;;;;;;;;;;;;;4988938;28;19914;-80
2023/03/21 00:04:51;;;;;;;;;;;;;;;;;;4959125;28;19973;-80
2023/03/21 00:07:17;;;;;;;;;;;;;;;;;;4982603;28;19925;-81
2023/03/21 00:09:42;;;;;;;;;;;;;;;;;;4995024;28;19914;-80
2023/03/21 00:12:10;;;;;;;;;;;;;;;;;;4970057;28;19921;-80
2023/03/21 00:14:36;;;;;;;;;;;;;;;;;;4971743;28;19946;-80
2023/03/21 00:17:02;;;;;;;;;;;;;;;;;;4962123;28;19922;-80
2023/03/21 00:19:28;;;;;;;;;;;;;;;;;;4965781;28;19920;-79
2023/03/21 00:21:54;;;;;;;;;;;;;;;;;;4986542;28;19941;-80
2023/03/21 00:24:21;;;;;;;;;;;;;;;;;;4973712;28;20397;-80
2023/03/21 00:26:47;;;;;;;;;;;;;;;;;;4993427;28;19916;-80
2023/03/21 00:29:12;;;;;;;;;;;;;;;;;;5002266;28;20012;-80
2023/03/21 00:31:37;;;;;;;;;;;;;;;;;;4982904;28;20694;-80
2023/03/21 00:34:03;;;;;;;;;;;;;;;;;;4996385;28;19918;-80
2023/03/21 00:36:29;;;;;;;;;;;;;;;;;;4989855;28;19914;-81
2023/03/21 00:38:57;;;;;;;;;;;;;;;;;;4959295;28;19921;-81
2023/03/21 00:41:22;;;;;;;;;;;;;;;;;;4985142;28;19914;-81
2023/03/21 00:43:48;;;;;;;;;;;;;;;;;;4982198;28;20029;-80
2023/03/21 00:46:13;;;;;;;;;;;;;;;;;;4981038;28;19914;-80
2023/03/21 00:48:38;;;;;;;;;;;;;;;;;;4978263;28;19922;-80
2023/03/21 00:51:06;;;;;;;;;;;;;;;;;;4982579;28;19949;-80
2023/03/21 00:53:31;;;;;;;;;;;;;;;;;;5001338;28;19913;-80
2023/03/21 00:55:57;;;;;;;;;;;;;;;;;;4974304;28;19918;-80
2023/03/21 00:58:22;;;;;;;;;;;;;;;;;;4985155;28;19917;-79
2023/03/21 01:00:49;;;;;;;;;;;;;;;;;;5009564;28;19953;-80
2023/03/21 01:03:14;;;;;;;;;;;;;;;;;;4999716;28;19911;-80
2023/03/21 01:08:24;;;;;;;;;;;;;;;;;;4999936;28;20358;-79
2023/03/21 01:10:50;;;;;;;;;;;;;;;;;;4992308;28;19926;-80
2023/03/21 01:13:16;;;;;;;;;;;;;;;;;;4969157;28;20386;-80
2023/03/21 01:15:42;;;;;;;;;;;;;;;;;;4993288;28;19921;-80
2023/03/21 01:18:07;;;;;;;;;;;;;;;;;;4966638;28;20138;-80
2023/03/21 01:20:33;;;;;;;;;;;;;;;;;;4979942;28;19917;-78
2023/03/21 01:22:58;;;;;;;;;;;;;;;;;;4982863;28;20364;-80
2023/03/21 01:25:24;;;;;;;;;;;;;;;;;;4960430;28;20345;-80
2023/03/21 01:27:49;;;;;;;;;;;;;;;;;;4996450;28;19910;-80
2023/03/21 01:30:15;;;;;;;;;;;;;;;;;;4996803;28;20016;-80
2023/03/21 01:32:40;;;;;;;;;;;;;;;;;;4984455;28;19925;-80
2023/03/21 01:35:06;;;;;;;;;;;;;;;;;;4983970;28;19914;-79
2023/03/21 01:37:31;;;;;;;;;;;;;;;;;;4959355;28;19914;-80
2023/03/21 01:39:57;;;;;;;;;;;;;;;;;;4966221;28;20029;-80
2023/03/21 01:42:22;;;;;;;;;;;;;;;;;;4970985;28;19957;-80
2023/03/21 01:44:48;;;;;;;;;;;;;;;;;;4957149;28;20012;-80
2023/03/21 01:47:14;;;;;;;;;;;;;;;;;;4963531;28;20012;-80
2023/03/21 01:49:45;;;;;;;;;;;;;;;;;;4996652;28;19913;-80
2023/03/21 01:52:29;;;;;;;;;;;;;;;;;;4971372;28;19922;-80
2023/03/21 01:54:54;;;;;;;;;;;;;;;;;;4972342;28;20404;-79
2023/03/21 01:57:20;;;;;;;;;;;;;;;;;;4977321;28;19913;-80
2023/03/21 01:59:49;;;;;;;;;;;;;;;;;;4958702;28;19914;-79
2023/03/21 02:02:36;;;;;;;;;;;;;;;;;;4986428;28;19914;-80
2023/03/21 02:05:23;;;;;;;;;;;;;;;;;;4968438;28;19920;-80
2023/03/21 02:07:49;;;;;;;;;;;;;;;;;;4972927;28;20001;-80
2023/03/21 02:10:15;;;;;;;;;;;;;;;;;;4957031;28;19920;-80
2023/03/21 02:12:45;;;;;;;;;;;;;;;;;;4977079;28;19932;-80
2023/03/21 02:15:10;;;;;;;;;;;;;;;;;;4984176;28;20300;-80
2023/03/21 02:17:48;;;;;;;;;;;;;;;;;;4979172;28;19913;-80
2023/03/21 02:20:16;;;;;;;;;;;;;;;;;;4993939;28;19914;-80
2023/03/21 02:22:41;;;;;;;;;;;;;;;;;;4984447;28;19914;-80
2023/03/21 02:25:07;;;;;;;;;;;;;;;;;;4973394;28;20416;-79
2023/03/21 02:27:33;;;;;;;;;;;;;;;;;;4979492;28;20401;-79
2023/03/21 02:29:59;;;;;;;;;;;;;;;;;;4989014;28;19921;-80
2023/03/21 02:32:24;;;;;;;;;;;;;;;;;;4972756;28;19918;-80
2023/03/21 02:34:53;;;;;;;;;;;;;;;;;;4975073;28;19922;-80
2023/03/21 02:37:19;;;;;;;;;;;;;;;;;;4975720;28;19914;-80
2023/03/21 02:39:44;;;;;;;;;;;;;;;;;;4990323;28;19921;-80
2023/03/21 02:42:09;;;;;;;;;;;;;;;;;;4935626;28;19954;-80
2023/03/21 02:44:35;;;;;;;;;;;;;;;;;;4966324;28;19988;-80
2023/03/21 02:47:01;;;;;;;;;;;;;;;;;;4980247;28;19933;-80
2023/03/21 02:49:26;;;;;;;;;;;;;;;;;;4979474;28;19920;-79
2023/03/21 02:51:53;;;;;;;;;;;;;;;;;;4967386;28;19924;-79
2023/03/21 02:54:18;;;;;;;;;;;;;;;;;;4972986;28;20001;-79
2023/03/21 02:56:44;;;;;;;;;;;;;;;;;;4973333;28;19921;-79
2023/03/21 02:59:10;;;;;;;;;;;;;;;;;;4982872;28;19914;-80
2023/03/21 03:01:35;;;;;;;;;;;;;;;;;;4962199;28;20096;-80
2023/03/21 03:04:01;;;;;;;;;;;;;;;;;;4969508;28;19914;-80
2023/03/21 03:06:29;;;;;;;;;;;;;;;;;;4987545;28;20004;-79
2023/03/21 03:08:54;;;;;;;;;;;;;;;;;;4976073;28;19962;-80
2023/03/21 03:11:20;;;;;;;;;;;;;;;;;;4981744;28;19918;-80
2023/03/21 03:13:45;;;;;;;;;;;;;;;;;;4970946;28;20020;-80
2023/03/21 03:16:12;;;;;;;;;;;;;;;;;;4999655;28;19914;-80
2023/03/21 03:18:37;;;;;;;;;;;;;;;;;;4989442;28;19928;-80
2023/03/21 03:21:03;;;;;;;;;;;;;;;;;;4963589;28;19914;-80
2023/03/21 03:23:28;;;;;;;;;;;;;;;;;;4985619;28;19922;-80
2023/03/21 03:25:54;;;;;;;;;;;;;;;;;;4996603;28;19925;-80
2023/03/21 03:28:20;;;;;;;;;;;;;;;;;;4944332;28;19973;-80
2023/03/21 03:30:45;;;;;;;;;;;;;;;;;;4980713;28;19937;-80
2023/03/21 03:33:13;;;;;;;;;;;;;;;;;;4980177;28;19917;-80
2023/03/21 03:35:39;;;;;;;;;;;;;;;;;;4974742;28;19918;-80
2023/03/21 03:38:05;;;;;;;;;;;;;;;;;;4983811;28;19960;-80
2023/03/21 03:40:30;;;;;;;;;;;;;;;;;;4990671;28;20020;-80
2023/03/21 03:43:06;;;;;;;;;;;;;;;;;;4980085;28;19990;-80
2023/03/21 03:45:35;;;;;;;;;;;;;;;;;;4951945;28;20653;-80
2023/03/21 03:48:00;;;;;;;;;;;;;;;;;;4968710;28;20002;-79
2023/03/21 03:50:30;;;;;;;;;;;;;;;;;;4974754;28;19914;-80
2023/03/21 03:52:56;;;;;;;;;;;;;;;;;;4981003;28;19925;-80
2023/03/21 03:55:22;;;;;;;;;;;;;;;;;;4984892;28;19914;-79
2023/03/21 03:57:49;;;;;;;;;;;;;;;;;;4993566;28;20404;-80
2023/03/21 04:00:14;;;;;;;;;;;;;;;;;;4971514;28;19913;-79
2023/03/21 04:02:42;;;;;;;;;;;;;;;;;;4987327;28;19914;-79
2023/03/21 04:05:08;;;;;;;;;;;;;;;;;;4947101;28;19922;-79
2023/03/21 04:07:34;;;;;;;;;;;;;;;;;;4962308;28;19914;-79
2023/03/21 04:10:00;;;;;;;;;;;;;;;;;;4952567;28;19965;-79
2023/03/21 04:12:26;;;;;;;;;;;;;;;;;;4973604;28;20381;-79
2023/03/21 04:15:11;;;;;;;;;;;;;;;;;;4988984;28;20017;-80
2023/03/21 04:17:41;;;;;;;;;;;;;;;;;;4968374;28;19929;-79
2023/03/21 04:20:07;;;;;;;;;;;;;;;;;;4960248;28;20042;-80
2023/03/21 04:22:35;;;;;;;;;;;;;;;;;;4991066;28;20206;-80
2023/03/21 04:25:00;;;;;;;;;;;;;;;;;;4984344;28;19965;-80
2023/03/21 04:27:27;;;;;;;;;;;;;;;;;;4979556;28;19914;-80
2023/03/21 04:30:19;;;;;;;;;;;;;;;;;;4987424;28;19949;-80
2023/03/21 04:32:55;;;;;;;;;;;;;;;;;;4991434;28;19918;-80
2023/03/21 04:35:21;;;;;;;;;;;;;;;;;;4989183;28;19952;-80
2023/03/21 04:37:47;;;;;;;;;;;;;;;;;;4967906;28;20377;-80
2023/03/21 04:40:16;;;;;;;;;;;;;;;;;;4985023;28;19914;-79
2023/03/21 04:42:42;;;;;;;;;;;;;;;;;;5012229;28;20004;-80
2023/03/21 04:45:07;;;;;;;;;;;;;;;;;;4976703;28;19921;-80
2023/03/21 04:47:32;;;;;;;;;;;;;;;;;;5010581;28;19913;-80
2023/03/21 04:49:58;;;;;;;;;;;;;;;;;;4991161;28;20003;-80
2023/03/21 04:52:24;;;;;;;;;;;;;;;;;;4985849;28;19917;-80
2023/03/21 04:54:49;;;;;;;;;;;;;;;;;;4999963;28;19914;-80
2023/03/21 04:57:16;;;;;;;;;;;;;;;;;;4960703;28;19977;-80
2023/03/21 04:59:42;;;;;;;;;;;;;;;;;;4965897;28;19914;-80
2023/03/21 05:02:07;;;;;;;;;;;;;;;;;;4981824;28;20349;-80
2023/03/21 05:04:32;;;;;;;;;;;;;;;;;;4960625;28;20251;-80
2023/03/21 05:06:58;;;;;;;;;;;;;;;;;;4969813;28;19989;-80
2023/03/21 05:09:23;;;;;;;;;;;;;;;;;;4963720;28;19969;-80
2023/03/21 05:11:49;;;;;;;;;;;;;;;;;;4954383;28;19918;-80
2023/03/21 05:14:15;;;;;;;;;;;;;;;;;;4975856;28;19974;-80
2023/03/21 05:16:47;;;;;;;;;;;;;;;;;;4949011;28;19914;-80
2023/03/21 05:19:14;;;;;;;;;;;;;;;;;;4963559;28;19956;-79
2023/03/21 05:21:41;;;;;;;;;;;;;;;;;;4950727;28;19950;-80
2023/03/21 05:24:13;;;;;;;;;;;;;;;;;;4989494;28;20294;-80
2023/03/21 05:26:39;;;;;;;;;;;;;;;;;;4979309;28;20370;-80
2023/03/21 05:29:12;;;;;;;;;;;;;;;;;;4946787;28;19945;-79
2023/03/21 05:31:37;;;;;;;;;;;;;;;;;;4959661;28;19929;-80
2023/03/21 05:34:07;;;;;;;;;;;;;;;;;;4970239;28;19918;-79
2023/03/21 05:36:34;;;;;;;;;;;;;;;;;;4952138;28;19914;-80
2023/03/21 05:39:01;;;;;;;;;;;;;;;;;;4975570;28;19964;-80
2023/03/21 05:41:26;;;;;;;;;;;;;;;;;;4976522;28;20345;-79
2023/03/21 05:43:52;;;;;;;;;;;;;;;;;;4988643;28;19921;-80
2023/03/21 05:46:17;;;;;;;;;;;;;;;;;;4982645;28;19936;-80
2023/03/21 05:48:43;;;;;;;;;;;;;;;;;;4981806;28;19914;-80
2023/03/21 05:51:14;;;;;;;;;;;;;;;;;;4990327;28;19968;-79
2023/03/21 05:53:40;;;;;;;;;;;;;;;;;;4943640;28;19953;-79
2023/03/21 05:56:05;;;;;;;;;;;;;;;;;;4973984;28;20274;-79
2023/03/21 05:58:46;;;;;;;;;;;;;;;;;;4982907;28;19915;-80
2023/03/21 06:01:11;;;;;;;;;;;;;;;;;;4957742;28;20386;-79
2023/03/21 06:03:40;;;;;;;;;;;;;;;;;;4993866;28;19952;-79
2023/03/21 06:06:16;;;;;;;;;;;;;;;;;;4978928;28;19914;-80
2023/03/21 06:08:50;;;;;;;;;;;;;;;;;;4965788;28;19914;-80
2023/03/21 06:11:15;;;;;;;;;;;;;;;;;;4952662;28;19940;-80
2023/03/21 06:13:41;;;;;;;;;;;;;;;;;;4958528;28;19914;-80
2023/03/21 06:16:07;;;;;;;;;;;;;;;;;;4983103;28;20387;-80
2023/03/21 06:18:34;;;;;;;;;;;;;;;;;;4967993;28;19918;-80
2023/03/21 06:21:14;;;;;;;;;;;;;;;;;;4959280;28;20183;-80
2023/03/21 06:58:45;;;;;;;;;;;;;;;;;;5745818;23;19926;-83
2023/03/21 07:18:07;;;;;;;;;;;;;;;;;;5249012;23;19932;-82
2023/03/21 07:26:56;;;;;;;;;;;;;;;;;;6075138;23;20253;-83
2023/03/21 07:29:34;;;;;;;;;;;;;;;;;;5561096;23;19929;-82
2023/03/21 07:32:07;;;;;;;;;;;;;;;;;;4966302;28;19917;-83
2023/03/21 07:34:35;;;;;;;;;;;;;;;;;;4964974;28;19914;-82
2023/03/21 07:37:02;;;;;;;;;;;;;;;;;;4947199;28;19914;-81
2023/03/21 07:39:36;;;;;;;;;;;;;;;;;;4965495;28;19914;-82
2023/03/21 07:42:03;;;;;;;;;;;;;;;;;;4975756;28;19938;-82
2023/03/21 07:44:47;;;;;;;;;;;;;;;;;;;;;
2023/03/21 08:15:05;;;;;;;;;;;;;;;;;;5408703;23;19914;-83
2023/03/21 08:20:30;;;;;;;;;;;;;;;;;;5836764;23;19925;-83
2023/03/21 08:23:10;;;;;;;;;;;;;;;;;;5003485;28;19905;-83
2023/03/21 08:25:37;;;;;;;;;;;;;;;;;;4985355;28;19990;-82
2023/03/21 08:28:27;;;;;;;;;;;;;;;;;;4989988;28;19921;-84
2023/03/21 08:30:57;;;;;;;;;;;;;;;;;;4987130;28;19902;-83
2023/03/21 08:33:39;;;;;;;;;;;;;;;;;;4986677;28;19914;-83
2023/03/21 08:36:10;;;;;;;;;;;;;;;;;;5002298;28;19921;-82
2023/03/21 08:38:40;;;;;;;;;;;;;;;;;;4967675;28;19921;-83
2023/03/21 08:49:24;;;;;;;;;;;;;;;;;;5327730;23;19926;-84
2023/03/21 08:51:56;;;;;;;;;;;;;;;;;;4951412;28;19934;-83
2023/03/21 08:54:32;;;;;;;;;;;;;;;;;;4951205;28;19996;-83
2023/03/21 08:59:43;;;;;;;;;;;;;;;;;;5617014;23;19926;-82
2023/03/21 09:02:15;;;;;;;;;;;;;;;;;;4983249;28;19902;-84
2023/03/21 09:07:50;;;;;;;;;;;;;;;;;;5126672;23;19930;-84
2023/03/21 09:10:19;;;;;;;;;;;;;;;;;;4985659;28;19953;-84
2023/03/21 09:12:47;;;;;;;;;;;;;;;;;;4981502;28;19946;-83
2023/03/21 09:15:13;;;;;;;;;;;;;;;;;;4994323;28;19970;-82
2023/03/21 09:17:41;;;;;;;;;;;;;;;;;;4961914;28;19921;-84
2023/03/21 09:20:10;;;;;;;;;;;;;;;;;;4962059;28;19914;-82
2023/03/21 09:22:39;;;;;;;;;;;;;;;;;;4969311;28;20012;-82
2023/03/21 09:25:07;;;;;;;;;;;;;;;;;;4975786;28;19933;-82
2023/03/21 09:27:37;;;;;;;;;;;;;;;;;;4972042;28;19965;-83
2023/03/21 09:30:07;;;;;;;;;;;;;;;;;;4961195;28;19914;-82
2023/03/21 09:32:34;;;;;;;;;;;;;;;;;;4970492;29;19925;-83
2023/03/21 09:35:06;;;;;;;;;;;;;;;;;;4941494;29;19908;-83
2023/03/21 09:37:40;;;;;;;;;;;;;;;;;;4970772;28;19922;-83
2023/03/21 09:40:11;;;;;;;;;;;;;;;;;;4959994;28;19914;-81
2023/03/21 09:42:42;;;;;;;;;;;;;;;;;;4959440;28;19914;-82
2023/03/21 09:45:09;;;;;;;;;;;;;;;;;;4964851;28;19899;-82
2023/03/21 09:47:44;;;;;;;;;;;;;;;;;;4969308;28;19942;-82
2023/03/21 09:50:10;;;;;;;;;;;;;;;;;;4983783;28;19914;-84
2023/03/21 09:52:42;;;;;;;;;;;;;;;;;;4993730;28;19981;-84
2023/03/21 09:55:43;;;;;;;;;;;;;;;;;;5794506;23;19926;-84
2023/03/21 09:58:29;;;;;;;;;;;;;;;;;;4970464;28;19898;-83
2023/03/21 10:01:21;;;;;;;;;;;;;;;;;;4970317;28;19918;-84
2023/03/21 10:04:47;;;;;;;;;;;;;;;;;;5169900;23;19949;-84
2023/03/21 10:07:24;;;;;;;;;;;;;;;;;;5000053;28;19945;-84
2023/03/21 10:10:20;;;;;;;;;;;;;;;;;;5001215;28;19918;-83
2023/03/21 10:18:34;;;;;;;;;;;;;;;;;;4976301;28;19934;-83
2023/03/21 10:21:28;;;;;;;;;;;;;;;;;;4989954;28;19938;-83
2023/03/21 10:24:17;;;;;;;;;;;;;;;;;;4980211;28;19925;-86
2023/03/21 10:27:08;;;;;;;;;;;;;;;;;;4982634;28;19990;-83
2023/03/21 10:29:35;;;;;;;;;;;;;;;;;;4978384;28;19914;-82
2023/03/21 10:32:44;;;;;;;;;;;;;;;;;;4984971;28;19985;-83
2023/03/21 10:35:35;;;;;;;;;;;;;;;;;;4955534;28;19922;-84
2023/03/21 10:38:12;;;;;;;;;;;;;;;;;;4964775;28;19921;-82
2023/03/21 10:41:07;;;;;;;;;;;;;;;;;;4954468;28;19908;-85
2023/03/21 10:46:55;;;;;;;;;;;;;;;;;;5071387;23;19910;-84
2023/03/21 10:49:34;;;;;;;;;;;;;;;;;;4986124;28;19961;-83
2023/03/21 10:52:07;;;;;;;;;;;;;;;;;;4986016;28;19905;-83
2023/03/21 11:27:33;;;;;;;;;;;;;;;;;;4961575;28;20094;-85
2023/03/21 11:46:14;;;;;;;;;;;;;;;;;;5237179;23;19910;-78
2023/03/21 11:48:43;;;;;;;;;;;;;;;;;;5010674;28;19914;-80
2023/03/21 11:51:12;;;;;;;;;;;;;;;;;;4965113;28;19921;-77
2023/03/21 11:53:39;;;;;;;;;;;;;;;;;;4952844;29;19915;-76
2023/03/21 11:56:05;;;;;;;;;;;;;;;;;;4940307;29;19973;-80
2023/03/21 11:58:31;;;;;;;;;;;;;;;;;;4976599;28;19906;-80
2023/03/21 12:01:02;;;;;;;;;;;;;;;;;;4998646;28;19899;-82
2023/03/21 12:03:33;;;;;;;;;;;;;;;;;;4983570;28;19925;-81
2023/03/21 12:06:03;;;;;;;;;;;;;;;;;;4968822;29;19899;-82
2023/03/21 12:08:37;;;;;;;;;;;;;;;;;;4962724;29;19914;-82
2023/03/21 12:11:06;;;;;;;;;;;;;;;;;;4978227;29;19919;-82
2023/03/21 12:13:32;;;;;;;;;;;;;;;;;;4961038;29;19966;-82
2023/03/21 12:15:58;;;;;;;;;;;;;;;;;;4966769;28;20057;-83
2023/03/21 12:18:26;;;;;;;;;;;;;;;;;;4955767;28;19913;-80
2023/03/21 12:20:55;;;;;;;;;;;;;;;;;;4957331;28;19914;-82
2023/03/21 12:23:27;;;;;;;;;;;;;;;;;;4968552;28;19914;-81
2023/03/21 12:25:58;;;;;;;;;;;;;;;;;;4973171;29;19985;-81
2023/03/21 12:28:24;;;;;;;;;;;;;;;;;;4942573;29;19974;-81
2023/03/21 12:30:51;;;;;;;;;;;;;;;;;;4973508;29;19942;-83
2023/03/21 12:33:18;;;;;;;;;;;;;;;;;;4957028;29;19942;-83
2023/03/21 12:35:44;;;;;;;;;;;;;;;;;;4982223;28;19914;-81
2023/03/21 12:38:10;;;;;;;;;;;;;;;;;;4976461;28;19973;-81
2023/03/21 12:40:37;;;;;;;;;;;;;;;;;;4960861;29;19946;-81
2023/03/21 12:43:03;;;;;;;;;;;;;;;;;;4957901;29;19921;-82
2023/03/21 12:45:29;;;;;;;;;;;;;;;;;;4974445;29;19918;-83
2023/03/21 12:47:55;;;;;;;;;;;;;;;;;;4957681;29;20421;-81
2023/03/21 12:50:21;;;;;;;;;;;;;;;;;;4958767;29;19920;-82
2023/03/21 12:52:47;;;;;;;;;;;;;;;;;;4969896;28;19918;-80
2023/03/21 12:55:13;;;;;;;;;;;;;;;;;;4955783;28;20015;-82
2023/03/21 12:57:38;;;;;;;;;;;;;;;;;;4961649;28;19977;-82
2023/03/21 13:00:11;;;;;;;;;;;;;;;;;;4977746;28;19914;-81
2023/03/21 13:02:40;;;;;;;;;;;;;;;;;;4948742;28;19914;-81
2023/03/21 13:05:06;;;;;;;;;;;;;;;;;;4949412;29;20358;-81
2023/03/21 13:07:31;;;;;;;;;;;;;;;;;;4943943;29;19964;-82
2023/03/21 13:09:58;;;;;;;;;;;;;;;;;;4967060;28;19914;-79
2023/03/21 13:12:27;;;;;;;;;;;;;;;;;;4969372;28;19918;-80
2023/03/21 13:14:53;;;;;;;;;;;;;;;;;;4962870;29;19914;-83
2023/03/21 13:17:19;;;;;;;;;;;;;;;;;;4942332;29;19982;-82
2023/03/21 13:19:44;;;;;;;;;;;;;;;;;;4967845;28;19914;-82
2023/03/21 13:22:10;;;;;;;;;;;;;;;;;;4960065;28;19914;-82
2023/03/21 13:24:36;;;;;;;;;;;;;;;;;;4955944;28;19919;-81
2023/03/21 13:27:07;;;;;;;;;;;;;;;;;;4954609;29;19914;-81
2023/03/21 13:29:33;;;;;;;;;;;;;;;;;;4953378;29;19914;-80
2023/03/21 13:31:59;;;;;;;;;;;;;;;;;;4950328;28;19973;-81
2023/03/21 13:34:25;;;;;;;;;;;;;;;;;;4971154;28;19910;-80
2023/03/21 13:36:52;;;;;;;;;;;;;;;;;;4936049;29;20374;-89
2023/03/21 13:39:17;;;;;;;;;;;;;;;;;;4936221;28;19938;-89
2023/03/21 13:49:36;;;;;;;;;;;;;;;;;;5118928;23;19925;-91
2023/03/21 13:54:37;;;;;;;;;;;;;;;;;;5507415;23;19933;-88
2023/03/21 13:57:03;;;;;;;;;;;;;;;;;;4946115;28;19914;-88
2023/03/21 13:59:29;;;;;;;;;;;;;;;;;;4976424;28;19914;-89
2023/03/21 14:01:55;;;;;;;;;;;;;;;;;;4962611;28;19914;-87
2023/03/21 14:04:21;;;;;;;;;;;;;;;;;;4959718;28;19922;-89
2023/03/21 14:06:47;;;;;;;;;;;;;;;;;;4962740;28;19921;-92
2023/03/21 14:09:13;;;;;;;;;;;;;;;;;;4940690;28;19914;-90
2023/03/21 14:11:38;;;;;;;;;;;;;;;;;;4938425;28;19930;-91
2023/03/21 14:14:04;;;;;;;;;;;;;;;;;;4934561;28;19914;-88
2023/03/21 14:50:06;;;;;;;;;;;;;;;;;;5213253;23;19933;-86
2023/03/21 15:14:16;;;;;;;;;;;;;;;;;;6073432;23;19920;-84
2023/03/21 15:17:11;;;;;;;;;;;;;;;;;;5841786;23;20684;-85
2023/03/21 15:22:46;;;;;;;;;;;;;;;;;;;;;
2023/03/21 15:25:17;;;;;;;;;;;;;;;;;;4970047;28;19902;-87
2023/03/21 15:27:50;;;;;;;;;;;;;;;;;;4987001;28;19902;-87
2023/03/21 15:31:12;;;;;;;;;;;;;;;;;;5377475;23;19920;-86
2023/03/21 16:06:46;;;;;;;;;;;;;;;;;;;;;
2023/03/21 17:02:42;;;;;;;;;;;;;;;;;;5990607;23;19950;-86
2023/03/21 17:27:07;;;;;;;;;;;;;;;;;;6055770;23;20427;-88
2023/03/21 17:35:11;;;;;;;;;;;;;;;;;;5992177;23;20152;-87
2023/03/21 18:02:27;;;;;;;;;;;;;;;;;;5505322;23;19918;-87
2023/03/21 18:05:39;;;;;;;;;;;;;;;;;;5499118;23;19917;-86
2023/03/21 18:24:23;;;;;;;;;;;;;;;;;;5883754;23;19926;-88
2023/03/21 18:40:35;;;;;;;;;;;;;;;;;;5822787;23;19910;-88
2023/03/21 20:06:53;;;;;;;;;;;;;;;;;;5956013;23;21075;-86
2023/03/21 20:14:52;;;;;;;;;;;;;;;;;;6073446;23;19920;-85
2023/03/21 20:17:22;;;;;;;;;;;;;;;;;;4967142;28;19922;-85
2023/03/21 20:41:42;;;;;;;;;;;;;;;;;;5288805;23;19925;-85
2023/03/21 21:05:50;;;;;;;;;;;;;;;;;;6066539;23;20055;-84
2023/03/21 21:08:29;;;;;;;;;;;;;;;;;;5786027;23;19928;-86
2023/03/21 21:11:03;;;;;;;;;;;;;;;;;;4986923;28;19902;-87
2023/03/21 22:35:21;;;;;;;;;;;;;;;;;;5311511;23;19926;-83
2023/03/21 23:36:07;;;;;;;;;;;;;;;;;;5654995;23;19926;-84
2023/03/21 23:38:46;;;;;;;;;;;;;;;;;;5004044;28;19921;-86
2023/03/21 23:41:47;;;;;;;;;;;;;;;;;;4979116;28;19918;-77
2023/03/21 23:44:14;;;;;;;;;;;;;;;;;;4980073;28;20419;-78
2023/03/21 23:46:39;;;;;;;;;;;;;;;;;;4966223;28;19918;-79
2023/03/21 23:49:05;;;;;;;;;;;;;;;;;;4965854;28;19914;-78
2023/03/21 23:51:30;;;;;;;;;;;;;;;;;;4959289;28;19952;-80
2023/03/21 23:53:57;;;;;;;;;;;;;;;;;;4951639;28;19978;-78
2023/03/21 23:56:22;;;;;;;;;;;;;;;;;;4963436;28;20163;-81
2023/03/21 23:58:51;;;;;;;;;;;;;;;;;;4969719;28;20488;-81
